createdAt,value
2023-04-02T00:02:34.224Z,2.97
2023-04-02T00:05:31.148Z,3.07
2023-04-02T00:08:01.255Z,2.90
2023-04-02T00:10:32.757Z,2.63
2023-04-02T00:13:02.751Z,2.50
2023-04-02T00:15:32.067Z,2.63
2023-04-02T00:18:02.870Z,2.97
2023-04-02T00:20:34.192Z,3.13
2023-04-02T00:23:03.432Z,2.83
2023-04-02T00:25:42.966Z,2.87
2023-04-02T00:28:14.057Z,2.47
2023-04-02T00:30:48.568Z,2.33
2023-04-02T00:33:20.656Z,2.70
2023-04-02T00:35:51.116Z,1.80
2023-04-02T00:38:25.726Z,3.37
2023-04-02T00:40:57.169Z,2.33
2023-04-02T00:43:27.928Z,1.83
2023-04-02T00:45:59.107Z,2.10
2023-04-02T00:48:42.053Z,1.97
2023-04-02T00:51:16.960Z,2.10
2023-04-02T00:53:47.696Z,2.20
2023-04-02T00:56:20.730Z,2.23
2023-04-02T00:58:53.506Z,1.73
2023-04-02T01:01:25.302Z,2.20
2023-04-02T01:03:58.231Z,2.07
2023-04-02T01:06:31.051Z,2.70
2023-04-02T01:09:22.425Z,2.17
2023-04-02T01:12:11.970Z,1.97
2023-04-02T01:14:51.888Z,1.87
2023-04-02T01:17:42.937Z,2.10
2023-04-02T01:20:48.902Z,1.77
2023-04-02T01:23:23.155Z,1.50
2023-04-02T01:25:56.386Z,1.97
2023-04-02T01:28:29.551Z,2.60
2023-04-02T01:31:02.595Z,2.40
2023-04-02T01:33:34.852Z,2.40
2023-04-02T01:36:11.626Z,1.60
2023-04-02T01:38:45.061Z,2.10
2023-04-02T01:41:22.044Z,1.57
2023-04-02T01:43:54.355Z,2.70
2023-04-02T01:46:28.110Z,1.87
2023-04-02T01:48:57.393Z,2.37
2023-04-02T01:51:31.028Z,1.83
2023-04-02T01:54:03.536Z,1.90
2023-04-02T01:56:32.391Z,1.80
2023-04-02T01:59:02.695Z,2.93
2023-04-02T02:01:40.599Z,1.90
2023-04-02T02:04:13.721Z,1.60
2023-04-02T02:06:42.492Z,2.43
2023-04-02T02:09:15.968Z,2.03
2023-04-02T02:11:44.180Z,2.07
2023-04-02T02:14:17.660Z,2.00
2023-04-02T02:16:48.781Z,1.70
2023-04-02T02:19:24.587Z,2.30
2023-04-02T02:21:54.938Z,1.50
2023-04-02T02:24:26.171Z,1.50
2023-04-02T02:27:06.402Z,1.80
2023-04-02T02:29:39.760Z,1.47
2023-04-02T02:32:11.881Z,2.50
2023-04-02T02:34:46.959Z,1.43
2023-04-02T02:37:20.143Z,1.77
2023-04-02T02:39:54.994Z,1.40
2023-04-02T02:42:29.807Z,1.37
2023-04-02T02:44:59.275Z,1.40
2023-04-02T02:47:30.451Z,1.60
2023-04-02T02:50:04.472Z,1.73
2023-04-02T02:52:36.210Z,1.30
2023-04-02T02:55:13.063Z,1.70
2023-04-02T02:58:08.844Z,1.40
2023-04-02T03:00:45.431Z,1.30
2023-04-02T03:03:18.707Z,1.37
2023-04-02T03:05:54.296Z,1.20
2023-04-02T03:08:28.733Z,1.80
2023-04-02T03:11:03.423Z,1.60
2023-04-02T03:13:35.506Z,1.70
2023-04-02T03:16:12.300Z,1.30
2023-04-02T03:18:49.070Z,1.53
2023-04-02T03:21:25.792Z,2.60
2023-04-02T03:23:58.458Z,1.50
2023-04-02T03:26:34.380Z,2.40
2023-04-02T03:29:08.129Z,1.27
2023-04-02T03:31:40.844Z,1.50
2023-04-02T03:34:18.593Z,1.40
2023-04-02T03:36:56.828Z,1.80
2023-04-02T03:39:31.508Z,1.30
2023-04-02T03:42:04.463Z,1.50
2023-04-02T03:44:38.760Z,1.13
2023-04-02T03:47:16.087Z,1.97
2023-04-02T03:49:54.322Z,1.83
2023-04-02T03:52:26.901Z,1.10
2023-04-02T03:54:59.825Z,1.47
2023-04-02T03:57:33.663Z,1.37
2023-04-02T04:00:14.310Z,1.10
2023-04-02T04:02:52.718Z,1.33
2023-04-02T04:05:27.582Z,1.50
2023-04-02T04:08:02.486Z,1.27
2023-04-02T04:10:31.827Z,1.23
2023-04-02T04:13:04.667Z,1.07
2023-04-02T04:15:38.192Z,1.20
2023-04-02T04:18:19.292Z,1.00
2023-04-02T04:20:56.310Z,1.17
2023-04-02T04:23:32.728Z,0.93
2023-04-02T04:26:10.475Z,0.80
2023-04-02T04:28:48.224Z,1.10
2023-04-02T04:31:24.620Z,0.80
2023-04-02T04:34:03.050Z,1.00
2023-04-02T04:36:41.535Z,1.00
2023-04-02T04:39:18.694Z,0.80
2023-04-02T04:41:52.636Z,1.27
2023-04-02T04:44:25.180Z,1.13
2023-04-02T04:47:03.257Z,1.37
2023-04-02T04:49:36.881Z,2.10
2023-04-02T04:52:11.115Z,1.00
2023-04-02T04:54:41.123Z,1.10
2023-04-02T04:57:25.177Z,1.20
2023-04-02T04:59:59.615Z,0.90
2023-04-02T05:02:35.089Z,1.70
2023-04-02T05:05:04.966Z,1.40
2023-04-02T05:07:49.418Z,1.33
2023-04-02T05:10:24.659Z,1.40
2023-04-02T05:12:57.518Z,1.70
2023-04-02T05:15:31.239Z,1.73
2023-04-02T05:18:18.539Z,1.13
2023-04-02T05:20:51.449Z,1.00
2023-04-02T05:23:27.289Z,1.47
2023-04-02T05:26:06.545Z,1.63
2023-04-02T05:28:41.894Z,1.23
2023-04-02T05:31:20.385Z,1.50
2023-04-02T05:33:50.729Z,1.70
2023-04-02T05:36:24.706Z,1.73
2023-04-02T05:39:00.194Z,1.07
2023-04-02T05:41:41.168Z,1.30
2023-04-02T05:44:19.244Z,0.70
2023-04-02T05:46:52.529Z,1.30
2023-04-02T05:49:31.329Z,1.23
2023-04-02T05:52:03.250Z,1.10
2023-04-02T05:54:39.226Z,1.00
2023-04-02T05:57:13.729Z,1.10
2023-04-02T05:59:46.042Z,1.10
2023-04-02T06:02:24.063Z,1.13
2023-04-02T06:04:57.953Z,0.70
2023-04-02T06:07:35.467Z,0.80
2023-04-02T06:10:10.894Z,1.13
2023-04-02T06:12:45.348Z,1.30
2023-04-02T06:15:15.569Z,0.90
2023-04-02T06:17:48.568Z,1.00
2023-04-02T06:20:19.011Z,1.00
2023-04-02T06:22:53.003Z,0.90
2023-04-02T06:25:28.903Z,1.30
2023-04-02T06:28:00.758Z,0.87
2023-04-02T06:30:32.905Z,0.83
2023-04-02T06:33:02.121Z,1.00
2023-04-02T06:35:31.401Z,0.70
2023-04-02T06:38:06.725Z,0.90
2023-04-02T06:40:48.698Z,0.90
2023-04-02T06:43:35.694Z,0.80
2023-04-02T06:46:19.921Z,0.83
2023-04-02T06:49:24.241Z,1.40
2023-04-02T06:51:59.581Z,0.80
2023-04-02T06:54:28.297Z,1.10
2023-04-02T06:57:02.761Z,0.70
2023-04-02T06:59:35.123Z,1.23
2023-04-02T07:02:17.388Z,1.10
2023-04-02T07:04:45.781Z,0.77
2023-04-02T07:07:14.283Z,1.17
2023-04-02T07:09:45.068Z,0.80
2023-04-02T07:12:15.715Z,1.20
2023-04-02T07:14:47.934Z,0.97
2023-04-02T07:17:17.896Z,0.97
2023-04-02T07:19:49.579Z,1.20
2023-04-02T07:22:20.548Z,0.80
2023-04-02T07:24:53.614Z,0.70
2023-04-02T07:27:23.123Z,1.00
2023-04-02T07:29:51.278Z,0.80
2023-04-02T07:32:19.920Z,1.53
2023-04-02T07:34:48.963Z,1.70
2023-04-02T07:37:17.153Z,0.90
2023-04-02T07:39:45.299Z,0.60
2023-04-02T07:42:13.424Z,1.00
2023-04-02T07:44:43.026Z,0.60
2023-04-02T07:47:11.513Z,1.13
2023-04-02T07:49:39.660Z,1.00
2023-04-02T07:52:07.906Z,1.20
2023-04-02T07:54:38.250Z,1.07
2023-04-02T07:57:06.496Z,1.27
2023-04-02T07:59:34.674Z,0.70
2023-04-02T08:02:04.416Z,0.90
2023-04-02T08:04:33.124Z,1.00
2023-04-02T08:07:01.594Z,0.80
2023-04-02T08:09:29.724Z,0.90
2023-04-02T08:11:57.874Z,0.80
2023-04-02T08:14:26.293Z,1.03
2023-04-02T08:16:56.332Z,1.53
2023-04-02T08:19:26.498Z,1.70
2023-04-02T08:21:55.090Z,0.90
2023-04-02T08:24:24.097Z,0.70
2023-04-02T08:26:53.509Z,1.13
2023-04-02T08:29:21.677Z,1.03
2023-04-02T08:31:50.011Z,0.80
2023-04-02T08:34:18.167Z,0.90
2023-04-02T08:36:47.625Z,0.50
2023-04-02T08:39:15.913Z,1.10
2023-04-02T08:41:51.319Z,0.60
2023-04-02T08:44:36.668Z,0.90
2023-04-02T08:47:06.491Z,0.83
2023-04-02T08:49:42.696Z,0.80
2023-04-02T08:52:21.990Z,1.00
2023-04-02T08:54:50.939Z,0.70
2023-04-02T08:57:28.241Z,0.90
2023-04-02T09:00:02.614Z,0.83
2023-04-02T09:02:36.169Z,0.70
2023-04-02T09:05:08.126Z,1.00
2023-04-02T09:07:37.893Z,0.90
2023-04-02T09:10:07.325Z,1.10
2023-04-02T09:12:36.512Z,1.10
2023-04-02T09:15:24.638Z,1.00
2023-04-02T09:18:01.027Z,1.10
2023-04-02T09:20:29.562Z,2.17
2023-04-02T09:22:59.133Z,0.70
2023-04-02T09:25:29.774Z,0.70
2023-04-02T09:28:01.433Z,1.10
2023-04-02T09:30:42.633Z,0.80
2023-04-02T09:33:11.599Z,0.90
2023-04-02T09:35:56.583Z,1.53
2023-04-02T09:38:30.861Z,0.70
2023-04-02T09:41:01.483Z,0.70
2023-04-02T09:43:31.697Z,1.20
2023-04-02T09:46:03.078Z,1.10
2023-04-02T09:48:35.358Z,1.03
2023-04-02T09:51:17.822Z,0.90
2023-04-02T09:53:49.316Z,0.80
2023-04-02T09:56:19.834Z,0.93
2023-04-02T09:59:03.826Z,0.70
2023-04-02T10:01:34.149Z,1.00
2023-04-02T10:04:05.417Z,0.87
2023-04-02T10:06:35.850Z,0.80
2023-04-02T10:09:28.598Z,1.13
2023-04-02T10:11:58.276Z,0.80
2023-04-02T10:14:29.617Z,0.90
2023-04-02T10:17:00.734Z,0.80
2023-04-02T10:19:33.536Z,0.70
2023-04-02T10:22:06.214Z,0.90
2023-04-02T10:24:36.054Z,0.90
2023-04-02T10:27:17.371Z,0.70
2023-04-02T10:30:02.241Z,0.70
2023-04-02T10:32:38.183Z,0.90
2023-04-02T10:35:15.747Z,0.90
2023-04-02T10:38:02.383Z,1.33
2023-04-02T10:40:36.953Z,0.90
2023-04-02T10:43:51.319Z,1.00
2023-04-02T10:46:25.369Z,0.80
2023-04-02T10:49:05.477Z,1.27
2023-04-02T10:51:41.524Z,1.30
2023-04-02T10:54:27.904Z,1.30
2023-04-02T10:57:02.461Z,2.33
2023-04-02T10:59:35.141Z,1.30
2023-04-02T11:02:12.170Z,1.00
2023-04-02T11:04:46.285Z,1.00
2023-04-02T11:07:19.477Z,1.13
2023-04-02T11:09:51.449Z,0.90
2023-04-02T11:12:26.149Z,0.80
2023-04-02T11:14:56.819Z,0.90
2023-04-02T11:17:25.827Z,0.90
2023-04-02T11:19:54.117Z,0.70
2023-04-02T11:22:24.090Z,0.93
2023-04-02T11:24:54.561Z,1.33
2023-04-02T11:27:27.932Z,1.10
2023-04-02T11:30:06.071Z,0.97
2023-04-02T11:32:40.567Z,0.90
2023-04-02T11:35:40.713Z,1.00
2023-04-02T11:38:46.335Z,0.83
2023-04-02T11:41:14.737Z,1.17
2023-04-02T11:44:01.496Z,0.90
2023-04-02T11:46:51.619Z,1.20
2023-04-02T11:49:40.809Z,0.80
2023-04-02T11:52:27.981Z,0.90
2023-04-02T11:55:02.309Z,0.90
2023-04-02T11:57:51.802Z,0.80
2023-04-02T12:00:53.797Z,1.20
2023-04-02T12:03:37.038Z,0.90
2023-04-02T12:06:10.752Z,0.90
2023-04-02T12:08:57.549Z,1.90
2023-04-02T12:11:35.897Z,1.47
2023-04-02T12:14:28.266Z,1.23
2023-04-02T12:16:59.574Z,1.20
2023-04-02T12:19:30.578Z,1.10
2023-04-02T12:22:00.541Z,1.00
2023-04-02T12:24:31.489Z,0.90
2023-04-02T12:27:15.590Z,1.03
2023-04-02T12:29:44.478Z,1.00
2023-04-02T12:32:22.992Z,0.90
2023-04-02T12:34:52.568Z,0.90
2023-04-02T12:37:23.105Z,1.47
2023-04-02T12:39:57.001Z,1.10
2023-04-02T12:42:30.215Z,1.00
2023-04-02T12:44:58.405Z,1.10
2023-04-02T12:47:28.839Z,0.80
2023-04-02T12:49:59.373Z,1.33
2023-04-02T12:52:29.757Z,0.90
2023-04-02T12:55:00.180Z,1.50
2023-04-02T12:57:39.799Z,0.80
2023-04-02T13:00:32.067Z,1.20
2023-04-02T13:03:16.668Z,0.70
2023-04-02T13:05:48.118Z,1.00
2023-04-02T13:08:19.548Z,0.80
2023-04-02T13:10:54.756Z,0.90
2023-04-02T13:13:30.140Z,1.37
2023-04-02T13:16:03.869Z,0.93
2023-04-02T13:18:35.311Z,0.90
2023-04-02T13:21:04.673Z,1.00
2023-04-02T13:23:36.277Z,1.17
2023-04-02T13:26:16.922Z,1.67
2023-04-02T13:28:45.325Z,0.70
2023-04-02T13:31:16.634Z,0.80
2023-04-02T13:33:46.222Z,0.70
2023-04-02T13:36:15.116Z,1.00
2023-04-02T13:38:43.311Z,1.20
2023-04-02T13:41:21.356Z,1.10
2023-04-02T13:43:50.096Z,0.60
2023-04-02T13:46:22.097Z,0.80
2023-04-02T13:48:53.291Z,0.90
2023-04-02T13:51:24.085Z,0.67
2023-04-02T13:53:56.139Z,0.73
2023-04-02T13:56:24.745Z,1.50
2023-04-02T13:58:53.373Z,0.70
2023-04-02T14:01:23.723Z,0.83
2023-04-02T14:03:54.916Z,0.80
2023-04-02T14:06:32.136Z,1.73
2023-04-02T14:09:05.121Z,0.60
2023-04-02T14:11:47.860Z,0.70
2023-04-02T14:14:29.797Z,0.70
2023-04-02T14:17:12.093Z,0.70
2023-04-02T14:19:53.099Z,0.73
2023-04-02T14:22:30.888Z,0.80
2023-04-02T14:25:08.484Z,0.80
2023-04-02T14:27:45.054Z,0.60
2023-04-02T14:30:22.436Z,0.90
2023-04-02T14:32:59.036Z,0.80
2023-04-02T14:35:33.736Z,0.70
2023-04-02T14:38:10.831Z,0.60
2023-04-02T14:40:46.283Z,0.80
2023-04-02T14:43:20.521Z,0.60
2023-04-02T14:46:01.196Z,0.60
2023-04-02T14:48:38.015Z,0.60
2023-04-02T14:51:15.516Z,0.70
2023-04-02T14:53:52.430Z,0.70
2023-04-02T14:56:22.780Z,1.00
2023-04-02T14:58:56.146Z,1.33
2023-04-02T15:01:28.470Z,0.70
2023-04-02T15:04:02.135Z,0.43
2023-04-02T15:06:37.829Z,0.60
2023-04-02T15:09:13.220Z,0.53
2023-04-02T15:11:46.091Z,0.83
2023-04-02T15:14:19.873Z,0.70
2023-04-02T15:16:48.203Z,0.60
2023-04-02T15:19:18.624Z,1.03
2023-04-02T15:22:14.596Z,0.90
2023-04-02T15:24:51.951Z,0.67
2023-04-02T15:27:32.899Z,0.80
2023-04-02T15:30:08.964Z,1.00
2023-04-02T15:32:39.256Z,0.63
2023-04-02T15:35:20.467Z,0.70
2023-04-02T15:37:59.299Z,0.60
2023-04-02T15:40:52.190Z,1.13
2023-04-02T15:43:37.937Z,0.90
2023-04-02T15:46:13.260Z,1.27
2023-04-02T15:49:06.589Z,0.90
2023-04-02T15:52:00.380Z,1.00
2023-04-02T15:54:46.913Z,0.70
2023-04-02T15:57:32.350Z,1.23
2023-04-02T16:00:20.852Z,0.70
2023-04-02T16:03:11.915Z,0.60
2023-04-02T16:05:45.089Z,0.90
2023-04-02T16:08:50.382Z,0.60
2023-04-02T16:11:20.872Z,0.77
2023-04-02T16:13:49.021Z,0.67
2023-04-02T16:16:23.699Z,0.70
2023-04-02T16:18:57.607Z,0.60
2023-04-02T16:21:32.444Z,0.80
2023-04-02T16:24:00.889Z,1.00
2023-04-02T16:26:37.713Z,1.37
2023-04-02T16:29:23.528Z,1.00
2023-04-02T16:31:57.821Z,0.83
2023-04-02T16:34:40.370Z,1.00
2023-04-02T16:37:19.496Z,0.80
2023-04-02T16:39:53.908Z,0.70
2023-04-02T16:42:35.044Z,0.60
2023-04-02T16:45:18.766Z,1.13
2023-04-02T16:47:57.892Z,0.70
2023-04-02T16:50:37.863Z,0.90
2023-04-02T16:53:19.382Z,0.90
2023-04-02T16:56:03.232Z,1.30
2023-04-02T16:58:46.839Z,0.60
2023-04-02T17:01:22.897Z,0.70
2023-04-02T17:04:02.211Z,0.60
2023-04-02T17:06:41.908Z,0.73
2023-04-02T17:09:17.293Z,0.70
2023-04-02T17:11:50.041Z,0.93
2023-04-02T17:14:28.442Z,0.80
2023-04-02T17:17:02.729Z,0.60
2023-04-02T17:19:33.074Z,0.60
2023-04-02T17:22:02.842Z,0.87
2023-04-02T17:24:34.860Z,0.80
2023-04-02T17:27:11.384Z,0.80
2023-04-02T17:29:44.536Z,0.83
2023-04-02T17:32:18.640Z,0.80
2023-04-02T17:34:46.806Z,0.67
2023-04-02T17:37:27.544Z,0.70
2023-04-02T17:40:06.723Z,0.80
2023-04-02T17:42:47.349Z,1.10
2023-04-02T17:45:22.889Z,0.70
2023-04-02T17:48:02.595Z,0.77
2023-04-02T17:50:49.287Z,0.97
2023-04-02T17:53:29.093Z,0.80
2023-04-02T17:56:22.002Z,1.10
2023-04-02T17:59:03.244Z,0.70
2023-04-02T18:01:38.160Z,1.20
2023-04-02T18:04:19.094Z,0.90
2023-04-02T18:07:09.525Z,0.80
2023-04-02T18:09:45.511Z,1.53
2023-04-02T18:12:32.143Z,1.20
2023-04-02T18:15:11.880Z,0.90
2023-04-02T18:17:49.165Z,1.20
2023-04-02T18:20:32.243Z,0.80
2023-04-02T18:23:08.985Z,0.80
2023-04-02T18:25:56.508Z,0.90
2023-04-02T18:28:47.060Z,0.90
2023-04-02T18:31:26.408Z,1.20
2023-04-02T18:34:13.169Z,0.87
2023-04-02T18:36:53.852Z,1.20
2023-04-02T18:39:31.800Z,1.30
2023-04-02T18:42:06.329Z,0.80
2023-04-02T18:44:53.052Z,0.80
2023-04-02T18:47:29.829Z,0.90
2023-04-02T18:50:13.205Z,1.60
2023-04-02T18:52:42.031Z,1.30
2023-04-02T18:55:18.145Z,0.93
2023-04-02T18:57:49.550Z,0.70
2023-04-02T19:00:26.477Z,1.00
2023-04-02T19:03:00.087Z,1.10
2023-04-02T19:05:37.641Z,0.93
2023-04-02T19:08:14.075Z,0.83
2023-04-02T19:10:44.800Z,1.50
2023-04-02T19:13:17.782Z,1.33
2023-04-02T19:16:02.288Z,1.30
2023-04-02T19:18:40.099Z,1.20
2023-04-02T19:21:19.083Z,0.80
2023-04-02T19:24:01.006Z,1.57
2023-04-02T19:26:36.744Z,1.37
2023-04-02T19:29:17.259Z,1.10
2023-04-02T19:31:54.535Z,0.87
2023-04-02T19:34:29.288Z,0.90
2023-04-02T19:37:04.604Z,0.87
2023-04-02T19:39:54.453Z,0.90
2023-04-02T19:42:40.697Z,1.03
2023-04-02T19:45:28.364Z,1.00
2023-04-02T19:47:58.560Z,0.90
2023-04-02T19:50:26.841Z,0.93
2023-04-02T19:52:56.442Z,0.80
2023-04-02T19:55:24.631Z,1.23
2023-04-02T19:57:54.679Z,1.00
2023-04-02T20:00:26.486Z,1.20
2023-04-02T20:02:54.693Z,0.60
2023-04-02T20:05:22.881Z,0.90
2023-04-02T20:07:51.581Z,1.07
2023-04-02T20:10:23.015Z,1.30
2023-04-02T20:12:51.469Z,0.87
2023-04-02T20:15:20.385Z,1.33
2023-04-02T20:17:48.549Z,1.27
2023-04-02T20:20:17.114Z,1.03
2023-04-02T20:22:45.410Z,0.90
2023-04-02T20:25:13.631Z,0.83
2023-04-02T20:27:43.171Z,1.03
2023-04-02T20:30:12.103Z,1.53
2023-04-02T20:32:40.603Z,0.90
2023-04-02T20:35:09.601Z,1.40
2023-04-02T20:37:39.507Z,1.40
2023-04-02T20:40:09.991Z,0.87
2023-04-02T20:42:38.170Z,1.00
2023-04-02T20:45:09.504Z,1.50
2023-04-02T20:47:37.677Z,1.13
2023-04-02T20:50:06.975Z,1.60
2023-04-02T20:52:35.115Z,1.67
2023-04-02T20:55:03.573Z,1.53
2023-04-02T20:57:32.810Z,1.20
2023-04-02T21:00:03.670Z,0.90
2023-04-02T21:02:33.154Z,0.80
2023-04-02T21:05:01.308Z,0.90
2023-04-02T21:07:29.470Z,1.13
2023-04-02T21:09:57.724Z,1.03
2023-04-02T21:12:26.844Z,0.97
2023-04-02T21:14:59.209Z,0.90
2023-04-02T21:17:29.688Z,1.10
2023-04-02T21:20:05.891Z,1.10
2023-04-02T21:22:34.482Z,1.33
2023-04-02T21:25:02.671Z,1.13
2023-04-02T21:27:30.817Z,0.80
2023-04-02T21:29:59.042Z,0.90
2023-04-02T21:32:27.240Z,1.00
2023-04-02T21:34:55.809Z,1.00
2023-04-02T21:37:25.375Z,0.80
2023-04-02T21:39:53.517Z,1.10
2023-04-02T21:42:22.384Z,1.17
2023-04-02T21:44:51.014Z,1.50
2023-04-02T21:47:19.291Z,1.53
2023-04-02T21:49:47.478Z,1.23
2023-04-02T21:52:16.130Z,1.50
2023-04-02T21:54:46.404Z,1.10
2023-04-02T21:57:14.838Z,1.30
2023-04-02T21:59:43.645Z,1.33
2023-04-02T22:02:12.145Z,1.10
2023-04-02T22:04:40.918Z,1.50
2023-04-02T22:07:09.133Z,0.70
2023-04-02T22:09:37.261Z,1.00
2023-04-02T22:12:08.164Z,1.30
2023-04-02T22:14:36.419Z,0.90
2023-04-02T22:17:04.681Z,1.00
2023-04-02T22:19:33.350Z,1.30
2023-04-02T22:22:01.489Z,1.33
2023-04-02T22:24:29.983Z,1.10
2023-04-02T22:26:58.176Z,1.00
2023-04-02T22:29:27.940Z,1.23
2023-04-02T22:31:56.066Z,1.40
2023-04-02T22:34:24.224Z,0.90
2023-04-02T22:36:53.005Z,1.10
2023-04-02T22:39:21.256Z,0.90
2023-04-02T22:41:49.432Z,1.20
2023-04-02T22:44:17.823Z,1.30
2023-04-02T22:46:47.298Z,0.90
2023-04-02T22:49:19.214Z,1.20
2023-04-02T22:51:47.935Z,1.17
2023-04-02T22:54:16.130Z,1.93
2023-04-02T22:56:44.272Z,0.97
2023-04-02T22:59:12.434Z,1.00
2023-04-02T23:01:41.086Z,0.80
2023-04-02T23:04:10.616Z,1.50
2023-04-02T23:06:38.735Z,1.30
2023-04-02T23:09:06.906Z,0.80
2023-04-02T23:11:35.081Z,0.90
2023-04-02T23:14:03.294Z,0.90
2023-04-02T23:16:31.594Z,1.00
2023-04-02T23:18:59.844Z,1.10
2023-04-02T23:21:29.290Z,1.03
2023-04-02T23:23:57.426Z,0.80
2023-04-02T23:26:29.695Z,1.00
2023-04-02T23:28:58.195Z,1.07
2023-04-02T23:31:26.873Z,1.20
2023-04-02T23:33:55.170Z,0.97
2023-04-02T23:36:25.157Z,0.90
2023-04-02T23:38:56.170Z,0.93
2023-04-02T23:41:27.013Z,1.23
2023-04-02T23:43:55.924Z,1.03
2023-04-02T23:46:25.110Z,0.90
2023-04-02T23:48:53.378Z,0.90
2023-04-02T23:51:21.742Z,0.80
2023-04-02T23:53:50.847Z,1.63
2023-04-02T23:56:21.741Z,1.37
2023-04-02T23:58:51.753Z,0.90
